METAR Data
IDs: Format: Raw Decoded Include TAF

Data at: 1154 UTC 07 Oct 2022

ETAD 071055Z AUTO 24006KT 9999 CLR 14/07 A3024 RMK AO2 SLP235 T01430071